sensor_id;sensor_type;location;lat;lon;timestamp;P1;durP1;ratioP1;P2;durP2;ratioP2
22622;SDS011;11478;51.094;7.030;2022-12-18T00:01:26;28.52;;;14.68;;
22622;SDS011;11478;51.094;7.030;2022-12-18T00:03:58;27.98;;;13.40;;
22622;SDS011;11478;51.094;7.030;2022-12-18T00:06:28;28.73;;;14.07;;
22622;SDS011;11478;51.094;7.030;2022-12-18T00:08:55;27.40;;;13.48;;
22622;SDS011;11478;51.094;7.030;2022-12-18T00:11:25;31.73;;;14.82;;
22622;SDS011;11478;51.094;7.030;2022-12-18T00:13:53;26.33;;;14.27;;
22622;SDS011;11478;51.094;7.030;2022-12-18T00:16:22;27.67;;;13.60;;
22622;SDS011;11478;51.094;7.030;2022-12-18T00:18:50;29.73;;;15.07;;
22622;SDS011;11478;51.094;7.030;2022-12-18T00:21:18;30.08;;;14.57;;
22622;SDS011;11478;51.094;7.030;2022-12-18T00:23:46;26.92;;;13.55;;
22622;SDS011;11478;51.094;7.030;2022-12-18T00:26:13;28.17;;;13.68;;
22622;SDS011;11478;51.094;7.030;2022-12-18T00:28:48;26.65;;;14.27;;
22622;SDS011;11478;51.094;7.030;2022-12-18T00:31:19;30.60;;;15.23;;
22622;SDS011;11478;51.094;7.030;2022-12-18T00:36:40;20.90;;;12.18;;
22622;SDS011;11478;51.094;7.030;2022-12-18T00:41:35;23.23;;;12.13;;
22622;SDS011;11478;51.094;7.030;2022-12-18T00:44:21;27.92;;;12.60;;
22622;SDS011;11478;51.094;7.030;2022-12-18T00:46:47;26.00;;;13.32;;
22622;SDS011;11478;51.094;7.030;2022-12-18T00:52:15;26.08;;;12.40;;
22622;SDS011;11478;51.094;7.030;2022-12-18T00:54:44;22.60;;;12.65;;
22622;SDS011;11478;51.094;7.030;2022-12-18T00:57:10;22.95;;;12.70;;
22622;SDS011;11478;51.094;7.030;2022-12-18T00:59:39;22.95;;;11.85;;
22622;SDS011;11478;51.094;7.030;2022-12-18T01:02:05;24.00;;;12.57;;
22622;SDS011;11478;51.094;7.030;2022-12-18T01:04:33;24.67;;;12.77;;
22622;SDS011;11478;51.094;7.030;2022-12-18T01:06:59;22.50;;;11.40;;
22622;SDS011;11478;51.094;7.030;2022-12-18T01:09:33;23.48;;;12.38;;
22622;SDS011;11478;51.094;7.030;2022-12-18T01:11:59;24.95;;;12.18;;
22622;SDS011;11478;51.094;7.030;2022-12-18T01:14:27;23.67;;;11.80;;
22622;SDS011;11478;51.094;7.030;2022-12-18T01:16:53;19.65;;;10.98;;
22622;SDS011;11478;51.094;7.030;2022-12-18T01:19:19;23.67;;;11.93;;
22622;SDS011;11478;51.094;7.030;2022-12-18T01:21:51;23.00;;;11.90;;
22622;SDS011;11478;51.094;7.030;2022-12-18T01:24:17;24.08;;;12.38;;
22622;SDS011;11478;51.094;7.030;2022-12-18T01:26:45;25.35;;;12.38;;
22622;SDS011;11478;51.094;7.030;2022-12-18T01:29:11;22.00;;;11.95;;
22622;SDS011;11478;51.094;7.030;2022-12-18T01:31:36;22.58;;;11.35;;
22622;SDS011;11478;51.094;7.030;2022-12-18T01:34:04;22.83;;;11.60;;
22622;SDS011;11478;51.094;7.030;2022-12-18T01:36:31;20.80;;;11.68;;
22622;SDS011;11478;51.094;7.030;2022-12-18T01:39:02;20.05;;;10.95;;
22622;SDS011;11478;51.094;7.030;2022-12-18T01:41:30;22.58;;;11.25;;
22622;SDS011;11478;51.094;7.030;2022-12-18T01:47:36;21.60;;;11.98;;
22622;SDS011;11478;51.094;7.030;2022-12-18T01:50:08;22.92;;;11.65;;
22622;SDS011;11478;51.094;7.030;2022-12-18T01:52:37;21.02;;;11.52;;
22622;SDS011;11478;51.094;7.030;2022-12-18T01:55:06;19.27;;;10.55;;
22622;SDS011;11478;51.094;7.030;2022-12-18T01:57:34;22.13;;;11.35;;
22622;SDS011;11478;51.094;7.030;2022-12-18T02:00:02;20.95;;;10.65;;
22622;SDS011;11478;51.094;7.030;2022-12-18T02:02:34;20.10;;;10.27;;
22622;SDS011;11478;51.094;7.030;2022-12-18T02:05:00;20.90;;;11.18;;
22622;SDS011;11478;51.094;7.030;2022-12-18T02:10:13;18.85;;;10.23;;
22622;SDS011;11478;51.094;7.030;2022-12-18T02:12:52;20.10;;;10.63;;
22622;SDS011;11478;51.094;7.030;2022-12-18T02:15:43;19.17;;;10.32;;
22622;SDS011;11478;51.094;7.030;2022-12-18T02:18:24;21.40;;;10.68;;
22622;SDS011;11478;51.094;7.030;2022-12-18T02:21:20;19.88;;;10.40;;
22622;SDS011;11478;51.094;7.030;2022-12-18T02:26:36;17.58;;;10.27;;
22622;SDS011;11478;51.094;7.030;2022-12-18T02:29:08;19.33;;;10.70;;
22622;SDS011;11478;51.094;7.030;2022-12-18T02:31:52;20.88;;;10.82;;
22622;SDS011;11478;51.094;7.030;2022-12-18T02:34:24;19.98;;;11.23;;
22622;SDS011;11478;51.094;7.030;2022-12-18T02:36:53;19.33;;;10.27;;
22622;SDS011;11478;51.094;7.030;2022-12-18T02:39:20;20.20;;;10.70;;
22622;SDS011;11478;51.094;7.030;2022-12-18T02:41:48;18.83;;;10.38;;
22622;SDS011;11478;51.094;7.030;2022-12-18T02:44:15;21.80;;;10.65;;
22622;SDS011;11478;51.094;7.030;2022-12-18T02:46:51;17.08;;;10.23;;
22622;SDS011;11478;51.094;7.030;2022-12-18T02:52:35;19.88;;;11.38;;
22622;SDS011;11478;51.094;7.030;2022-12-18T02:58:17;18.73;;;10.63;;
22622;SDS011;11478;51.094;7.030;2022-12-18T03:04:25;16.90;;;9.82;;
22622;SDS011;11478;51.094;7.030;2022-12-18T03:06:39;21.30;;;10.60;;
22622;SDS011;11478;51.094;7.030;2022-12-18T03:09:13;18.90;;;10.25;;
22622;SDS011;11478;51.094;7.030;2022-12-18T03:11:46;19.40;;;10.85;;
22622;SDS011;11478;51.094;7.030;2022-12-18T03:14:55;19.63;;;10.23;;
22622;SDS011;11478;51.094;7.030;2022-12-18T03:17:27;19.92;;;10.10;;
22622;SDS011;11478;51.094;7.030;2022-12-18T03:19:58;22.02;;;10.57;;
22622;SDS011;11478;51.094;7.030;2022-12-18T03:22:36;19.17;;;10.15;;
22622;SDS011;11478;51.094;7.030;2022-12-18T03:25:06;21.48;;;11.20;;
22622;SDS011;11478;51.094;7.030;2022-12-18T03:27:35;18.77;;;10.55;;
22622;SDS011;11478;51.094;7.030;2022-12-18T03:30:08;18.23;;;10.52;;
22622;SDS011;11478;51.094;7.030;2022-12-18T03:33:38;18.30;;;9.85;;
22622;SDS011;11478;51.094;7.030;2022-12-18T03:38:14;19.40;;;10.25;;
22622;SDS011;11478;51.094;7.030;2022-12-18T03:41:27;15.63;;;9.43;;
22622;SDS011;11478;51.094;7.030;2022-12-18T03:43:43;17.45;;;9.60;;
22622;SDS011;11478;51.094;7.030;2022-12-18T03:52:10;17.60;;;9.38;;
22622;SDS011;11478;51.094;7.030;2022-12-18T03:54:59;19.63;;;10.00;;
22622;SDS011;11478;51.094;7.030;2022-12-18T03:57:30;17.48;;;9.55;;
22622;SDS011;11478;51.094;7.030;2022-12-18T03:59:59;16.60;;;9.10;;
22622;SDS011;11478;51.094;7.030;2022-12-18T04:02:31;16.13;;;9.50;;
22622;SDS011;11478;51.094;7.030;2022-12-18T04:04:59;18.08;;;9.80;;
22622;SDS011;11478;51.094;7.030;2022-12-18T04:10:19;16.27;;;8.75;;
22622;SDS011;11478;51.094;7.030;2022-12-18T04:12:59;16.45;;;9.05;;
22622;SDS011;11478;51.094;7.030;2022-12-18T04:15:25;17.27;;;9.70;;
22622;SDS011;11478;51.094;7.030;2022-12-18T04:17:52;17.05;;;9.50;;
22622;SDS011;11478;51.094;7.030;2022-12-18T04:20:18;16.15;;;9.80;;
22622;SDS011;11478;51.094;7.030;2022-12-18T04:22:44;14.40;;;8.93;;
22622;SDS011;11478;51.094;7.030;2022-12-18T04:25:10;15.35;;;8.77;;
22622;SDS011;11478;51.094;7.030;2022-12-18T04:27:36;17.27;;;9.43;;
22622;SDS011;11478;51.094;7.030;2022-12-18T04:35:21;15.90;;;8.77;;
22622;SDS011;11478;51.094;7.030;2022-12-18T04:37:47;17.38;;;9.13;;
22622;SDS011;11478;51.094;7.030;2022-12-18T04:40:25;17.15;;;9.00;;
22622;SDS011;11478;51.094;7.030;2022-12-18T04:42:51;17.30;;;8.43;;
22622;SDS011;11478;51.094;7.030;2022-12-18T04:45:18;17.13;;;8.77;;
22622;SDS011;11478;51.094;7.030;2022-12-18T04:47:44;16.45;;;9.13;;
22622;SDS011;11478;51.094;7.030;2022-12-18T04:50:24;15.13;;;8.73;;
22622;SDS011;11478;51.094;7.030;2022-12-18T04:52:50;17.95;;;9.30;;
22622;SDS011;11478;51.094;7.030;2022-12-18T04:55:33;15.23;;;8.93;;
22622;SDS011;11478;51.094;7.030;2022-12-18T04:57:59;13.90;;;7.65;;
22622;SDS011;11478;51.094;7.030;2022-12-18T05:00:30;15.82;;;8.73;;
22622;SDS011;11478;51.094;7.030;2022-12-18T05:02:56;15.98;;;8.85;;
22622;SDS011;11478;51.094;7.030;2022-12-18T05:08:00;14.88;;;8.85;;
22622;SDS011;11478;51.094;7.030;2022-12-18T05:13:42;15.18;;;8.75;;
22622;SDS011;11478;51.094;7.030;2022-12-18T05:16:11;17.55;;;9.23;;
22622;SDS011;11478;51.094;7.030;2022-12-18T05:21:11;14.18;;;7.13;;
22622;SDS011;11478;51.094;7.030;2022-12-18T05:23:38;14.73;;;8.35;;
22622;SDS011;11478;51.094;7.030;2022-12-18T05:26:05;15.18;;;9.07;;
22622;SDS011;11478;51.094;7.030;2022-12-18T05:28:33;15.75;;;8.98;;
22622;SDS011;11478;51.094;7.030;2022-12-18T05:31:01;18.08;;;8.77;;
22622;SDS011;11478;51.094;7.030;2022-12-18T05:33:29;16.80;;;9.25;;
22622;SDS011;11478;51.094;7.030;2022-12-18T05:35:57;15.20;;;8.63;;
22622;SDS011;11478;51.094;7.030;2022-12-18T05:38:36;16.90;;;9.52;;
22622;SDS011;11478;51.094;7.030;2022-12-18T05:41:03;16.80;;;9.15;;
22622;SDS011;11478;51.094;7.030;2022-12-18T05:43:30;16.77;;;8.35;;
22622;SDS011;11478;51.094;7.030;2022-12-18T05:45:56;15.40;;;8.27;;
22622;SDS011;11478;51.094;7.030;2022-12-18T05:48:25;17.40;;;9.27;;
22622;SDS011;11478;51.094;7.030;2022-12-18T05:50:51;17.30;;;9.13;;
22622;SDS011;11478;51.094;7.030;2022-12-18T05:53:18;14.15;;;8.88;;
22622;SDS011;11478;51.094;7.030;2022-12-18T05:55:45;14.93;;;8.05;;
22622;SDS011;11478;51.094;7.030;2022-12-18T05:58:13;16.55;;;8.93;;
22622;SDS011;11478;51.094;7.030;2022-12-18T06:00:41;16.42;;;8.90;;
22622;SDS011;11478;51.094;7.030;2022-12-18T06:03:13;15.98;;;9.05;;
22622;SDS011;11478;51.094;7.030;2022-12-18T06:05:40;17.10;;;8.93;;
22622;SDS011;11478;51.094;7.030;2022-12-18T06:08:14;15.85;;;8.68;;
22622;SDS011;11478;51.094;7.030;2022-12-18T06:10:40;13.95;;;6.68;;
22622;SDS011;11478;51.094;7.030;2022-12-18T06:13:07;16.42;;;8.30;;
22622;SDS011;11478;51.094;7.030;2022-12-18T06:15:32;15.73;;;8.40;;
22622;SDS011;11478;51.094;7.030;2022-12-18T06:18:02;14.48;;;8.68;;
22622;SDS011;11478;51.094;7.030;2022-12-18T06:20:28;16.80;;;8.57;;
22622;SDS011;11478;51.094;7.030;2022-12-18T06:22:55;20.05;;;9.07;;
22622;SDS011;11478;51.094;7.030;2022-12-18T06:25:21;15.05;;;8.00;;
22622;SDS011;11478;51.094;7.030;2022-12-18T06:27:56;17.15;;;8.63;;
22622;SDS011;11478;51.094;7.030;2022-12-18T06:30:22;15.20;;;8.52;;
22622;SDS011;11478;51.094;7.030;2022-12-18T06:32:50;17.75;;;9.30;;
22622;SDS011;11478;51.094;7.030;2022-12-18T06:35:16;14.57;;;8.68;;
22622;SDS011;11478;51.094;7.030;2022-12-18T06:37:54;16.05;;;8.85;;
22622;SDS011;11478;51.094;7.030;2022-12-18T06:40:20;16.42;;;8.38;;
22622;SDS011;11478;51.094;7.030;2022-12-18T06:42:46;17.05;;;9.05;;
22622;SDS011;11478;51.094;7.030;2022-12-18T06:45:12;14.43;;;8.13;;
22622;SDS011;11478;51.094;7.030;2022-12-18T06:47:40;20.40;;;9.13;;
22622;SDS011;11478;51.094;7.030;2022-12-18T06:50:06;16.50;;;8.57;;
22622;SDS011;11478;51.094;7.030;2022-12-18T06:52:42;21.10;;;9.90;;
22622;SDS011;11478;51.094;7.030;2022-12-18T06:55:09;22.38;;;9.63;;
22622;SDS011;11478;51.094;7.030;2022-12-18T06:57:37;19.75;;;9.60;;
22622;SDS011;11478;51.094;7.030;2022-12-18T07:00:04;17.33;;;9.30;;
22622;SDS011;11478;51.094;7.030;2022-12-18T07:02:31;19.83;;;10.35;;
22622;SDS011;11478;51.094;7.030;2022-12-18T07:04:57;19.70;;;9.60;;
22622;SDS011;11478;51.094;7.030;2022-12-18T07:07:33;16.75;;;9.48;;
22622;SDS011;11478;51.094;7.030;2022-12-18T07:10:00;19.30;;;10.73;;
22622;SDS011;11478;51.094;7.030;2022-12-18T07:12:29;20.20;;;10.07;;
22622;SDS011;11478;51.094;7.030;2022-12-18T07:14:54;21.42;;;10.05;;
22622;SDS011;11478;51.094;7.030;2022-12-18T07:17:21;17.98;;;10.13;;
22622;SDS011;11478;51.094;7.030;2022-12-18T07:19:47;20.35;;;10.48;;
22622;SDS011;11478;51.094;7.030;2022-12-18T07:22:13;20.25;;;10.70;;
22622;SDS011;11478;51.094;7.030;2022-12-18T07:24:40;18.80;;;10.27;;
22622;SDS011;11478;51.094;7.030;2022-12-18T07:27:06;18.55;;;10.85;;
22622;SDS011;11478;51.094;7.030;2022-12-18T07:29:32;18.52;;;10.48;;
22622;SDS011;11478;51.094;7.030;2022-12-18T07:31:57;25.00;;;11.80;;
22622;SDS011;11478;51.094;7.030;2022-12-18T07:34:25;18.73;;;10.30;;
22622;SDS011;11478;51.094;7.030;2022-12-18T07:36:54;17.75;;;10.60;;
22622;SDS011;11478;51.094;7.030;2022-12-18T07:39:20;19.77;;;10.35;;
22622;SDS011;11478;51.094;7.030;2022-12-18T07:41:46;17.38;;;9.88;;
22622;SDS011;11478;51.094;7.030;2022-12-18T07:44:31;20.25;;;10.20;;
22622;SDS011;11478;51.094;7.030;2022-12-18T07:46:58;20.75;;;10.32;;
22622;SDS011;11478;51.094;7.030;2022-12-18T07:49:24;22.65;;;11.45;;
22622;SDS011;11478;51.094;7.030;2022-12-18T07:51:57;23.15;;;12.13;;
22622;SDS011;11478;51.094;7.030;2022-12-18T07:54:23;19.65;;;10.52;;
22622;SDS011;11478;51.094;7.030;2022-12-18T07:59:32;22.00;;;11.27;;
22622;SDS011;11478;51.094;7.030;2022-12-18T08:02:16;25.98;;;12.80;;
22622;SDS011;11478;51.094;7.030;2022-12-18T08:04:42;20.25;;;11.60;;
22622;SDS011;11478;51.094;7.030;2022-12-18T08:07:23;21.88;;;11.68;;
22622;SDS011;11478;51.094;7.030;2022-12-18T08:09:49;20.80;;;11.38;;
22622;SDS011;11478;51.094;7.030;2022-12-18T08:12:15;20.80;;;10.80;;
22622;SDS011;11478;51.094;7.030;2022-12-18T08:14:40;22.13;;;11.52;;
22622;SDS011;11478;51.094;7.030;2022-12-18T08:17:16;23.92;;;12.32;;
22622;SDS011;11478;51.094;7.030;2022-12-18T08:22:12;21.02;;;10.90;;
22622;SDS011;11478;51.094;7.030;2022-12-18T08:24:41;22.15;;;12.05;;
22622;SDS011;11478;51.094;7.030;2022-12-18T08:27:07;24.13;;;12.13;;
22622;SDS011;11478;51.094;7.030;2022-12-18T08:29:33;25.80;;;14.05;;
22622;SDS011;11478;51.094;7.030;2022-12-18T08:31:59;23.50;;;12.93;;
22622;SDS011;11478;51.094;7.030;2022-12-18T08:37:26;23.95;;;12.77;;
22622;SDS011;11478;51.094;7.030;2022-12-18T08:42:37;28.40;;;13.35;;
22622;SDS011;11478;51.094;7.030;2022-12-18T08:47:53;22.73;;;12.40;;
22622;SDS011;11478;51.094;7.030;2022-12-18T08:50:19;24.63;;;13.48;;
22622;SDS011;11478;51.094;7.030;2022-12-18T08:52:45;24.92;;;13.07;;
22622;SDS011;11478;51.094;7.030;2022-12-18T08:55:13;25.35;;;12.85;;
22622;SDS011;11478;51.094;7.030;2022-12-18T08:57:39;25.27;;;12.85;;
22622;SDS011;11478;51.094;7.030;2022-12-18T09:02:35;25.23;;;12.98;;
22622;SDS011;11478;51.094;7.030;2022-12-18T09:05:01;24.63;;;13.20;;
22622;SDS011;11478;51.094;7.030;2022-12-18T09:07:27;26.10;;;13.48;;
22622;SDS011;11478;51.094;7.030;2022-12-18T09:12:24;19.35;;;11.02;;
22622;SDS011;11478;51.094;7.030;2022-12-18T09:14:53;18.50;;;11.27;;
22622;SDS011;11478;51.094;7.030;2022-12-18T09:17:21;19.80;;;11.07;;
22622;SDS011;11478;51.094;7.030;2022-12-18T09:19:47;19.75;;;10.52;;
22622;SDS011;11478;51.094;7.030;2022-12-18T09:22:15;19.33;;;10.07;;
22622;SDS011;11478;51.094;7.030;2022-12-18T09:24:49;18.52;;;9.43;;
22622;SDS011;11478;51.094;7.030;2022-12-18T10:06:11;14.65;;;8.65;;
22622;SDS011;11478;51.094;7.030;2022-12-18T10:08:54;14.57;;;7.95;;
22622;SDS011;11478;51.094;7.030;2022-12-18T10:14:15;13.55;;;8.18;;
22622;SDS011;11478;51.094;7.030;2022-12-18T10:28:07;18.55;;;10.40;;
22622;SDS011;11478;51.094;7.030;2022-12-18T10:30:45;14.93;;;8.20;;
22622;SDS011;11478;51.094;7.030;2022-12-18T10:33:22;30.25;;;13.68;;
22622;SDS011;11478;51.094;7.030;2022-12-18T10:38:33;25.17;;;12.18;;
22622;SDS011;11478;51.094;7.030;2022-12-18T10:41:03;19.38;;;10.88;;
22622;SDS011;11478;51.094;7.030;2022-12-18T10:43:39;12.38;;;7.50;;
22622;SDS011;11478;51.094;7.030;2022-12-18T10:57:13;12.38;;;7.68;;
22622;SDS011;11478;51.094;7.030;2022-12-18T11:00:01;14.90;;;8.27;;
22622;SDS011;11478;51.094;7.030;2022-12-18T11:02:51;14.43;;;8.80;;
22622;SDS011;11478;51.094;7.030;2022-12-18T11:08:28;14.18;;;8.30;;
22622;SDS011;11478;51.094;7.030;2022-12-18T11:10:57;12.98;;;8.23;;
22622;SDS011;11478;51.094;7.030;2022-12-18T11:26:10;13.23;;;7.93;;
22622;SDS011;11478;51.094;7.030;2022-12-18T11:28:37;14.82;;;8.07;;
22622;SDS011;11478;51.094;7.030;2022-12-18T11:33:52;15.82;;;9.82;;
22622;SDS011;11478;51.094;7.030;2022-12-18T11:50:11;14.43;;;8.82;;
22622;SDS011;11478;51.094;7.030;2022-12-18T12:00:49;16.60;;;9.48;;
22622;SDS011;11478;51.094;7.030;2022-12-18T12:03:39;15.23;;;9.48;;
22622;SDS011;11478;51.094;7.030;2022-12-18T12:23:41;16.23;;;10.07;;
22622;SDS011;11478;51.094;7.030;2022-12-18T12:26:29;19.58;;;12.00;;
22622;SDS011;11478;51.094;7.030;2022-12-18T12:40:24;19.65;;;12.13;;
22622;SDS011;11478;51.094;7.030;2022-12-18T12:42:58;21.25;;;12.70;;
22622;SDS011;11478;51.094;7.030;2022-12-18T12:57:00;21.50;;;12.73;;
22622;SDS011;11478;51.094;7.030;2022-12-18T13:04:48;19.65;;;11.95;;
22622;SDS011;11478;51.094;7.030;2022-12-18T13:20:36;23.75;;;13.88;;
22622;SDS011;11478;51.094;7.030;2022-12-18T13:38:39;24.02;;;14.15;;
22622;SDS011;11478;51.094;7.030;2022-12-18T13:46:48;27.30;;;14.25;;
22622;SDS011;11478;51.094;7.030;2022-12-18T13:54:45;24.63;;;14.65;;
22622;SDS011;11478;51.094;7.030;2022-12-18T13:57:28;25.98;;;14.68;;
22622;SDS011;11478;51.094;7.030;2022-12-18T13:59:59;28.15;;;15.45;;
22622;SDS011;11478;51.094;7.030;2022-12-18T14:02:44;25.80;;;15.10;;
22622;SDS011;11478;51.094;7.030;2022-12-18T14:05:29;28.38;;;15.63;;
22622;SDS011;11478;51.094;7.030;2022-12-18T14:08:03;30.63;;;16.33;;
22622;SDS011;11478;51.094;7.030;2022-12-18T14:14:04;27.45;;;15.82;;
22622;SDS011;11478;51.094;7.030;2022-12-18T14:16:32;28.48;;;15.93;;
22622;SDS011;11478;51.094;7.030;2022-12-18T14:19:15;26.00;;;15.52;;
22622;SDS011;11478;51.094;7.030;2022-12-18T14:21:47;26.10;;;15.50;;
22622;SDS011;11478;51.094;7.030;2022-12-18T14:26:43;25.60;;;15.18;;
22622;SDS011;11478;51.094;7.030;2022-12-18T14:32:10;27.70;;;16.13;;
22622;SDS011;11478;51.094;7.030;2022-12-18T14:34:50;29.48;;;16.10;;
22622;SDS011;11478;51.094;7.030;2022-12-18T14:37:25;27.58;;;16.60;;
22622;SDS011;11478;51.094;7.030;2022-12-18T14:39:59;28.88;;;15.95;;
22622;SDS011;11478;51.094;7.030;2022-12-18T14:42:27;29.02;;;16.33;;
22622;SDS011;11478;51.094;7.030;2022-12-18T14:47:57;27.50;;;15.02;;
22622;SDS011;11478;51.094;7.030;2022-12-18T14:50:24;27.83;;;15.55;;
22622;SDS011;11478;51.094;7.030;2022-12-18T14:52:51;29.95;;;16.48;;
22622;SDS011;11478;51.094;7.030;2022-12-18T14:55:17;28.27;;;16.13;;
22622;SDS011;11478;51.094;7.030;2022-12-18T14:57:44;28.30;;;16.15;;
22622;SDS011;11478;51.094;7.030;2022-12-18T15:00:18;29.75;;;15.90;;
22622;SDS011;11478;51.094;7.030;2022-12-18T15:02:56;28.70;;;16.30;;
22622;SDS011;11478;51.094;7.030;2022-12-18T15:05:29;27.98;;;15.98;;
22622;SDS011;11478;51.094;7.030;2022-12-18T15:07:57;25.05;;;15.55;;
22622;SDS011;11478;51.094;7.030;2022-12-18T15:10:32;28.88;;;17.08;;
22622;SDS011;11478;51.094;7.030;2022-12-18T15:18:32;31.33;;;16.73;;
22622;SDS011;11478;51.094;7.030;2022-12-18T15:21:09;29.25;;;16.60;;
22622;SDS011;11478;51.094;7.030;2022-12-18T15:26:16;31.63;;;17.05;;
22622;SDS011;11478;51.094;7.030;2022-12-18T15:36:09;30.73;;;17.10;;
22622;SDS011;11478;51.094;7.030;2022-12-18T15:38:37;30.08;;;17.55;;
22622;SDS011;11478;51.094;7.030;2022-12-18T15:41:03;28.33;;;17.40;;
22622;SDS011;11478;51.094;7.030;2022-12-18T15:43:29;31.20;;;17.83;;
22622;SDS011;11478;51.094;7.030;2022-12-18T15:46:04;30.83;;;17.90;;
22622;SDS011;11478;51.094;7.030;2022-12-18T15:48:31;33.10;;;17.63;;
22622;SDS011;11478;51.094;7.030;2022-12-18T15:50:59;32.38;;;18.70;;
22622;SDS011;11478;51.094;7.030;2022-12-18T15:53:29;33.20;;;17.67;;
22622;SDS011;11478;51.094;7.030;2022-12-18T15:55:59;31.08;;;17.75;;
22622;SDS011;11478;51.094;7.030;2022-12-18T15:58:43;34.05;;;18.40;;
22622;SDS011;11478;51.094;7.030;2022-12-18T16:01:09;33.47;;;18.92;;
22622;SDS011;11478;51.094;7.030;2022-12-18T16:03:36;33.63;;;19.23;;
22622;SDS011;11478;51.094;7.030;2022-12-18T16:06:11;30.90;;;18.13;;
22622;SDS011;11478;51.094;7.030;2022-12-18T16:08:37;33.15;;;18.77;;
22622;SDS011;11478;51.094;7.030;2022-12-18T16:11:23;33.55;;;19.17;;
22622;SDS011;11478;51.094;7.030;2022-12-18T16:17:25;38.42;;;20.92;;
22622;SDS011;11478;51.094;7.030;2022-12-18T16:19:51;34.45;;;19.17;;
22622;SDS011;11478;51.094;7.030;2022-12-18T16:22:19;32.22;;;18.35;;
22622;SDS011;11478;51.094;7.030;2022-12-18T16:24:50;33.63;;;18.85;;
22622;SDS011;11478;51.094;7.030;2022-12-18T16:27:20;33.38;;;19.58;;
22622;SDS011;11478;51.094;7.030;2022-12-18T16:29:47;38.10;;;20.23;;
22622;SDS011;11478;51.094;7.030;2022-12-18T16:32:14;33.47;;;20.10;;
22622;SDS011;11478;51.094;7.030;2022-12-18T16:34:42;34.40;;;20.13;;
22622;SDS011;11478;51.094;7.030;2022-12-18T16:37:09;37.10;;;20.95;;
22622;SDS011;11478;51.094;7.030;2022-12-18T16:39:38;37.50;;;21.00;;
22622;SDS011;11478;51.094;7.030;2022-12-18T16:42:14;35.28;;;20.23;;
22622;SDS011;11478;51.094;7.030;2022-12-18T16:44:54;40.63;;;21.42;;
22622;SDS011;11478;51.094;7.030;2022-12-18T16:49:50;36.38;;;20.30;;
22622;SDS011;11478;51.094;7.030;2022-12-18T16:54:48;37.65;;;21.35;;
22622;SDS011;11478;51.094;7.030;2022-12-18T16:57:18;38.70;;;21.70;;
22622;SDS011;11478;51.094;7.030;2022-12-18T16:59:48;44.13;;;21.80;;
22622;SDS011;11478;51.094;7.030;2022-12-18T17:02:18;38.83;;;21.15;;
22622;SDS011;11478;51.094;7.030;2022-12-18T17:04:51;39.38;;;22.20;;
22622;SDS011;11478;51.094;7.030;2022-12-18T17:07:36;39.05;;;21.55;;
22622;SDS011;11478;51.094;7.030;2022-12-18T17:13:27;38.33;;;22.20;;
22622;SDS011;11478;51.094;7.030;2022-12-18T17:15:55;38.72;;;21.45;;
22622;SDS011;11478;51.094;7.030;2022-12-18T17:18:43;37.40;;;21.25;;
22622;SDS011;11478;51.094;7.030;2022-12-18T17:21:12;40.05;;;22.70;;
22622;SDS011;11478;51.094;7.030;2022-12-18T17:23:44;40.15;;;22.83;;
22622;SDS011;11478;51.094;7.030;2022-12-18T17:26:14;42.08;;;23.25;;
22622;SDS011;11478;51.094;7.030;2022-12-18T17:28:41;41.42;;;23.42;;
22622;SDS011;11478;51.094;7.030;2022-12-18T17:31:14;39.08;;;22.80;;
22622;SDS011;11478;51.094;7.030;2022-12-18T17:33:46;38.22;;;22.58;;
22622;SDS011;11478;51.094;7.030;2022-12-18T17:36:12;41.15;;;22.55;;
22622;SDS011;11478;51.094;7.030;2022-12-18T17:38:39;42.63;;;23.75;;
22622;SDS011;11478;51.094;7.030;2022-12-18T17:41:10;48.58;;;26.02;;
22622;SDS011;11478;51.094;7.030;2022-12-18T17:43:36;46.55;;;23.90;;
22622;SDS011;11478;51.094;7.030;2022-12-18T17:46:10;39.20;;;20.65;;
22622;SDS011;11478;51.094;7.030;2022-12-18T17:48:47;42.80;;;23.45;;
22622;SDS011;11478;51.094;7.030;2022-12-18T17:51:18;48.70;;;24.33;;
22622;SDS011;11478;51.094;7.030;2022-12-18T17:53:47;45.22;;;24.13;;
22622;SDS011;11478;51.094;7.030;2022-12-18T17:56:14;53.88;;;27.30;;
22622;SDS011;11478;51.094;7.030;2022-12-18T17:58:50;44.28;;;23.33;;
22622;SDS011;11478;51.094;7.030;2022-12-18T18:01:21;45.95;;;24.95;;
22622;SDS011;11478;51.094;7.030;2022-12-18T18:03:51;46.17;;;25.13;;
22622;SDS011;11478;51.094;7.030;2022-12-18T18:06:26;47.90;;;24.77;;
22622;SDS011;11478;51.094;7.030;2022-12-18T18:08:55;46.20;;;24.73;;
22622;SDS011;11478;51.094;7.030;2022-12-18T18:11:33;49.05;;;26.23;;
22622;SDS011;11478;51.094;7.030;2022-12-18T18:16:55;59.70;;;30.42;;
22622;SDS011;11478;51.094;7.030;2022-12-18T18:19:24;49.50;;;25.95;;
22622;SDS011;11478;51.094;7.030;2022-12-18T18:22:00;58.60;;;29.23;;
22622;SDS011;11478;51.094;7.030;2022-12-18T18:24:28;66.25;;;31.20;;
22622;SDS011;11478;51.094;7.030;2022-12-18T18:26:54;49.58;;;25.55;;
22622;SDS011;11478;51.094;7.030;2022-12-18T18:29:26;52.55;;;26.13;;
22622;SDS011;11478;51.094;7.030;2022-12-18T18:31:54;49.85;;;26.17;;
22622;SDS011;11478;51.094;7.030;2022-12-18T18:34:24;50.00;;;25.65;;
22622;SDS011;11478;51.094;7.030;2022-12-18T18:36:51;42.47;;;23.42;;
22622;SDS011;11478;51.094;7.030;2022-12-18T18:39:17;44.65;;;24.70;;
22622;SDS011;11478;51.094;7.030;2022-12-18T18:41:46;47.67;;;25.33;;
22622;SDS011;11478;51.094;7.030;2022-12-18T18:44:12;72.85;;;33.25;;
22622;SDS011;11478;51.094;7.030;2022-12-18T18:46:47;52.83;;;25.95;;
22622;SDS011;11478;51.094;7.030;2022-12-18T18:51:48;76.82;;;34.17;;
22622;SDS011;11478;51.094;7.030;2022-12-18T18:54:17;52.08;;;27.98;;
22622;SDS011;11478;51.094;7.030;2022-12-18T18:56:47;53.47;;;25.85;;
22622;SDS011;11478;51.094;7.030;2022-12-18T18:59:17;62.30;;;31.92;;
22622;SDS011;11478;51.094;7.030;2022-12-18T19:01:43;59.42;;;30.10;;
22622;SDS011;11478;51.094;7.030;2022-12-18T19:04:10;72.95;;;33.45;;
22622;SDS011;11478;51.094;7.030;2022-12-18T19:06:36;58.85;;;30.77;;
22622;SDS011;11478;51.094;7.030;2022-12-18T19:09:04;51.63;;;26.27;;
22622;SDS011;11478;51.094;7.030;2022-12-18T19:11:32;54.13;;;27.00;;
22622;SDS011;11478;51.094;7.030;2022-12-18T19:14:19;62.97;;;32.28;;
22622;SDS011;11478;51.094;7.030;2022-12-18T19:16:45;56.17;;;29.88;;
22622;SDS011;11478;51.094;7.030;2022-12-18T19:19:19;85.10;;;41.55;;
22622;SDS011;11478;51.094;7.030;2022-12-18T19:21:46;56.75;;;31.85;;
22622;SDS011;11478;51.094;7.030;2022-12-18T19:26:44;51.40;;;26.70;;
22622;SDS011;11478;51.094;7.030;2022-12-18T19:29:15;50.63;;;26.50;;
22622;SDS011;11478;51.094;7.030;2022-12-18T19:31:49;53.90;;;25.75;;
22622;SDS011;11478;51.094;7.030;2022-12-18T19:34:18;51.50;;;26.25;;
22622;SDS011;11478;51.094;7.030;2022-12-18T19:36:44;54.40;;;27.10;;
22622;SDS011;11478;51.094;7.030;2022-12-18T19:39:15;48.35;;;25.95;;
22622;SDS011;11478;51.094;7.030;2022-12-18T19:41:42;51.67;;;26.73;;
22622;SDS011;11478;51.094;7.030;2022-12-18T19:44:13;50.97;;;25.92;;
22622;SDS011;11478;51.094;7.030;2022-12-18T19:46:40;50.80;;;25.70;;
22622;SDS011;11478;51.094;7.030;2022-12-18T19:49:09;51.17;;;26.40;;
22622;SDS011;11478;51.094;7.030;2022-12-18T19:51:36;47.22;;;24.33;;
22622;SDS011;11478;51.094;7.030;2022-12-18T19:54:05;47.88;;;25.27;;
22622;SDS011;11478;51.094;7.030;2022-12-18T19:56:32;51.80;;;25.08;;